createdAt,value
2022-11-05T00:02:36.975Z,101266.03
2022-11-05T00:05:22.994Z,101271.31
2022-11-05T00:08:22.318Z,101273.19
2022-11-05T00:10:50.981Z,101268.63
2022-11-05T00:13:35.493Z,101259.78
2022-11-05T00:16:22.441Z,101257.19
2022-11-05T00:19:06.615Z,101253.59
2022-11-05T00:21:52.706Z,101254.22
2022-11-05T00:24:38.173Z,101249.78
2022-11-05T00:27:10.249Z,101245.06
2022-11-05T00:29:38.123Z,101242.34
2022-11-05T00:32:07.552Z,101238.75
2022-11-05T00:34:38.204Z,101240.97
2022-11-05T00:37:06.337Z,101249.34
2022-11-05T00:39:34.423Z,101241.41
2022-11-05T00:42:19.689Z,101242.19
2022-11-05T00:45:02.887Z,101237.66
2022-11-05T00:47:51.096Z,101256.56
2022-11-05T00:50:20.291Z,101256.72
2022-11-05T00:53:00.633Z,101243.72
2022-11-05T00:55:30.107Z,101250.88
2022-11-05T00:57:58.755Z,101249.84
2022-11-05T01:00:28.680Z,101253.97
2022-11-05T01:03:01.037Z,101264.44
2022-11-05T01:05:30.511Z,101248.63
2022-11-05T01:07:58.976Z,101252.75
2022-11-05T01:10:27.477Z,101249.06
2022-11-05T01:12:55.608Z,101250.63
2022-11-05T01:15:23.966Z,101240.91
2022-11-05T01:17:52.475Z,101243.50
2022-11-05T01:20:21.745Z,101249.56
2022-11-05T01:22:49.675Z,101244.19
2022-11-05T01:25:17.997Z,101243.03
2022-11-05T01:27:45.953Z,101243.81
2022-11-05T01:30:14.995Z,101249.81
2022-11-05T01:32:45.686Z,101243.81
2022-11-05T01:35:16.264Z,101244.53
2022-11-05T01:37:48.703Z,101229.06
2022-11-05T01:40:19.550Z,101233.97
2022-11-05T01:42:47.678Z,101232.97
2022-11-05T01:45:19.356Z,101239.69
2022-11-05T01:47:58.093Z,101234.25
2022-11-05T01:50:34.539Z,101224.16
2022-11-05T01:53:11.182Z,101229.78
2022-11-05T01:55:44.567Z,101224.97
2022-11-05T01:58:17.358Z,101217.38
2022-11-05T02:00:45.700Z,101214.41
2022-11-05T02:03:16.790Z,101217.78
2022-11-05T02:05:46.408Z,101225.28
2022-11-05T02:08:26.090Z,101216.22
2022-11-05T02:10:54.131Z,101222.13
2022-11-05T02:13:22.007Z,101210.53
2022-11-05T02:16:03.144Z,101216.09
2022-11-05T02:18:42.484Z,101218.53
2022-11-05T02:21:33.949Z,101214.91
2022-11-05T02:24:42.449Z,101216.63
2022-11-05T02:27:29.310Z,101220.81
2022-11-05T02:30:13.514Z,101229.97
2022-11-05T02:33:06.349Z,101226.19
2022-11-05T02:36:09.528Z,101218.97
2022-11-05T02:38:44.122Z,101215.44
2022-11-05T02:41:23.847Z,101210.91
2022-11-05T02:44:04.523Z,101209.78
2022-11-05T02:46:42.734Z,101206.13
2022-11-05T02:49:23.857Z,101207.81
2022-11-05T02:51:57.898Z,101202.44
2022-11-05T02:54:34.326Z,101195.38
2022-11-05T02:57:04.963Z,101201.66
2022-11-05T02:59:33.085Z,101204.94
2022-11-05T03:02:03.206Z,101199.72
2022-11-05T03:04:33.629Z,101203.28
2022-11-05T03:07:23.880Z,101211.19
2022-11-05T03:10:08.207Z,101210.25
2022-11-05T03:12:46.031Z,101211.03
2022-11-05T03:15:22.760Z,101210.00
2022-11-05T03:18:02.299Z,101211.50
2022-11-05T03:20:38.872Z,101212.44
2022-11-05T03:23:13.220Z,101212.44
2022-11-05T03:25:46.763Z,101215.97
2022-11-05T03:28:16.035Z,101222.97
2022-11-05T03:30:45.514Z,101222.09
2022-11-05T03:33:18.607Z,101230.78
2022-11-05T03:35:53.334Z,101221.38
2022-11-05T03:38:26.362Z,101214.28
2022-11-05T03:40:57.584Z,101208.72
2022-11-05T03:43:32.493Z,101212.91
2022-11-05T03:46:04.342Z,101217.41
2022-11-05T03:48:34.148Z,101207.97
2022-11-05T03:51:09.770Z,101206.97
2022-11-05T03:53:43.232Z,101208.72
2022-11-05T03:56:18.203Z,101210.59
2022-11-05T03:58:47.843Z,101208.25
2022-11-05T04:01:16.606Z,101206.44
2022-11-05T04:03:44.625Z,101207.31
2022-11-05T04:06:31.402Z,101209.91
2022-11-05T04:09:16.576Z,101212.44
2022-11-05T04:12:01.706Z,101208.25
2022-11-05T04:14:29.621Z,101213.75
2022-11-05T04:17:10.044Z,101216.38
2022-11-05T04:19:56.609Z,101203.66
2022-11-05T04:22:46.949Z,101212.00
2022-11-05T04:25:16.306Z,101209.97
2022-11-05T04:27:44.385Z,101212.41
2022-11-05T04:30:19.179Z,101221.84
2022-11-05T04:32:58.688Z,101218.88
2022-11-05T04:35:27.765Z,101215.44
2022-11-05T04:37:57.086Z,101220.38
2022-11-05T04:40:25.619Z,101209.78
2022-11-05T04:42:55.431Z,101207.16
2022-11-05T04:45:23.774Z,101207.84
2022-11-05T04:47:51.699Z,101210.53
2022-11-05T04:50:19.675Z,101204.19
2022-11-05T04:52:50.540Z,101210.19
2022-11-05T04:55:19.911Z,101206.72
2022-11-05T04:57:49.049Z,101202.91
2022-11-05T05:00:17.368Z,101201.06
2022-11-05T05:02:45.432Z,101206.84
2022-11-05T05:05:14.306Z,101205.94
2022-11-05T05:07:42.522Z,101201.63
2022-11-05T05:10:12.073Z,101200.44
2022-11-05T05:12:41.530Z,101199.50
2022-11-05T05:15:09.788Z,101200.34
2022-11-05T05:17:37.748Z,101195.84
2022-11-05T05:20:23.477Z,101193.16
2022-11-05T05:22:55.408Z,101196.63
2022-11-05T05:25:23.741Z,101198.47
2022-11-05T05:27:53.128Z,101195.59
2022-11-05T05:30:21.404Z,101192.16
2022-11-05T05:32:49.633Z,101197.19
2022-11-05T05:35:17.629Z,101196.34
2022-11-05T05:37:45.590Z,101193.75
2022-11-05T05:40:13.556Z,101191.78
2022-11-05T05:42:43.450Z,101189.28
2022-11-05T05:45:14.046Z,101192.78
2022-11-05T05:47:41.706Z,101194.94
2022-11-05T05:50:10.067Z,101199.81
2022-11-05T05:52:37.915Z,101205.03
2022-11-05T05:55:06.455Z,101196.09
2022-11-05T05:57:35.163Z,101192.44
2022-11-05T06:00:03.286Z,101197.56
2022-11-05T06:02:33.231Z,101187.41
2022-11-05T06:05:01.228Z,101191.78
2022-11-05T06:07:31.839Z,101187.31
2022-11-05T06:10:03.926Z,101181.16
2022-11-05T06:12:31.973Z,101189.91
2022-11-05T06:14:59.856Z,101183.78
2022-11-05T06:17:27.755Z,101183.97
2022-11-05T06:19:57.073Z,101180.41
2022-11-05T06:22:24.920Z,101181.00
2022-11-05T06:24:52.865Z,101181.00
2022-11-05T06:27:20.802Z,101175.84
2022-11-05T06:29:48.700Z,101182.00
2022-11-05T06:32:16.597Z,101181.06
2022-11-05T06:34:44.439Z,101185.44
2022-11-05T06:37:13.794Z,101189.00
2022-11-05T06:39:41.677Z,101183.97
2022-11-05T06:42:18.475Z,101189.91
2022-11-05T06:44:47.110Z,101190.69
2022-11-05T06:47:15.114Z,101187.13
2022-11-05T06:49:43.047Z,101198.50
2022-11-05T06:52:11.038Z,101194.13
2022-11-05T06:54:40.870Z,101194.22
2022-11-05T06:57:09.996Z,101187.22
2022-11-05T06:59:41.317Z,101186.47
2022-11-05T07:02:13.582Z,101187.47
2022-11-05T07:04:41.988Z,101179.56
2022-11-05T07:07:09.945Z,101184.78
2022-11-05T07:09:43.227Z,101181.25
2022-11-05T07:12:11.426Z,101177.88
2022-11-05T07:14:39.402Z,101174.50
2022-11-05T07:17:07.280Z,101183.28
2022-11-05T07:19:35.163Z,101179.81
2022-11-05T07:22:03.433Z,101178.34
2022-11-05T07:24:31.316Z,101171.25
2022-11-05T07:27:00.766Z,101163.63
2022-11-05T07:29:28.751Z,101164.25
2022-11-05T07:31:56.673Z,101173.78
2022-11-05T07:34:24.691Z,101171.09
2022-11-05T07:36:52.582Z,101162.22
2022-11-05T07:39:21.161Z,101157.94
2022-11-05T07:41:49.045Z,101159.69
2022-11-05T07:44:18.268Z,101157.00
2022-11-05T07:46:46.179Z,101159.69
2022-11-05T07:49:14.548Z,101158.56
2022-11-05T07:51:45.413Z,101161.19
2022-11-05T07:54:13.294Z,101158.56
2022-11-05T07:56:43.863Z,101161.19
2022-11-05T07:59:11.758Z,101162.03
2022-11-05T08:01:41.494Z,101166.13
2022-11-05T08:04:09.576Z,101164.28
2022-11-05T08:06:37.495Z,101159.06
2022-11-05T08:09:05.518Z,101165.03
2022-11-05T08:11:35.237Z,101162.25
2022-11-05T08:14:03.141Z,101155.97
2022-11-05T08:16:31.042Z,101156.94
2022-11-05T08:19:00.779Z,101158.59
2022-11-05T08:21:28.685Z,101155.03
2022-11-05T08:23:56.545Z,101159.25
2022-11-05T08:26:24.412Z,101162.78
2022-11-05T08:28:52.298Z,101153.19
2022-11-05T08:31:20.205Z,101152.25
2022-11-05T08:33:48.058Z,101157.28
2022-11-05T08:36:17.311Z,101136.66
2022-11-05T08:38:45.223Z,101145.16
2022-11-05T08:41:13.103Z,101148.72
2022-11-05T08:43:42.201Z,101143.41
2022-11-05T08:46:10.156Z,101151.16
2022-11-05T08:48:38.239Z,101146.75
2022-11-05T08:51:06.244Z,101149.25
2022-11-05T08:53:37.815Z,101144.78
2022-11-05T08:56:06.016Z,101143.13
2022-11-05T08:58:33.970Z,101142.91
2022-11-05T09:01:04.910Z,101135.06
2022-11-05T09:03:33.392Z,101133.22
2022-11-05T09:06:01.343Z,101132.16
2022-11-05T09:08:29.226Z,101128.75
2022-11-05T09:10:58.494Z,101119.97
2022-11-05T09:13:27.187Z,101119.88
2022-11-05T09:15:55.213Z,101118.63
2022-11-05T09:18:23.154Z,101114.25
2022-11-05T09:20:51.051Z,101119.56
2022-11-05T09:23:18.966Z,101120.53
2022-11-05T09:25:47.552Z,101114.34
2022-11-05T09:28:18.475Z,101117.16
2022-11-05T09:30:48.396Z,101116.41
2022-11-05T09:33:17.129Z,101112.03
2022-11-05T09:35:45.471Z,101109.50
2022-11-05T09:38:13.814Z,101110.44
2022-11-05T09:40:49.078Z,101113.06
2022-11-05T09:43:21.597Z,101116.50
2022-11-05T09:45:52.125Z,101108.75
2022-11-05T09:48:24.803Z,101107.66
2022-11-05T09:50:54.845Z,101107.66
2022-11-05T09:53:24.982Z,101111.06
2022-11-05T09:55:56.724Z,101098.84
2022-11-05T09:58:36.618Z,101101.75
2022-11-05T10:01:07.993Z,101099.03
2022-11-05T10:03:43.751Z,101097.38
2022-11-05T10:06:18.769Z,101100.81
2022-11-05T10:08:50.432Z,101103.44
2022-11-05T10:11:22.099Z,101093.06
2022-11-05T10:13:56.324Z,101097.47
2022-11-05T10:16:27.405Z,101094.88
2022-11-05T10:19:04.207Z,101090.44
2022-11-05T10:22:04.271Z,101089.81
2022-11-05T10:24:22.305Z,101084.50
2022-11-05T10:26:53.667Z,101088.88
2022-11-05T10:29:27.578Z,101088.97
2022-11-05T10:31:56.894Z,101082.91
2022-11-05T10:34:33.353Z,101080.28
2022-11-05T10:37:01.493Z,101075.06
2022-11-05T10:39:32.364Z,101070.69
2022-11-05T10:42:33.330Z,101080.28
2022-11-05T10:45:13.036Z,101076.94
2022-11-05T10:47:59.134Z,101072.84
2022-11-05T10:50:28.793Z,101066.69
2022-11-05T10:53:01.361Z,101067.63
2022-11-05T10:55:32.174Z,101074.63
2022-11-05T10:58:11.733Z,101068.91
2022-11-05T11:00:41.294Z,101074.34
2022-11-05T11:03:35.041Z,101061.56
2022-11-05T11:06:04.996Z,101062.69
2022-11-05T11:08:36.600Z,101060.25
2022-11-05T11:11:07.546Z,101053.38
2022-11-05T11:13:52.308Z,101055.41
2022-11-05T11:16:24.031Z,101052.03
2022-11-05T11:18:55.352Z,101049.63
2022-11-05T11:21:24.295Z,101050.56
2022-11-05T11:23:57.286Z,101049.00
2022-11-05T11:26:26.671Z,101045.63
2022-11-05T11:28:59.217Z,101042.34
2022-11-05T11:31:31.762Z,101043.19
2022-11-05T11:34:03.245Z,101044.94
2022-11-05T11:36:36.315Z,101042.47
2022-11-05T11:39:07.849Z,101039.00
2022-11-05T11:41:39.453Z,101039.00
2022-11-05T11:44:14.227Z,101043.38
2022-11-05T11:46:48.489Z,101039.09
2022-11-05T11:49:33.290Z,101035.63
2022-11-05T11:52:04.556Z,101037.53
2022-11-05T11:54:34.769Z,101034.16
2022-11-05T11:57:02.813Z,101033.22
2022-11-05T11:59:54.293Z,101035.09
2022-11-05T12:02:55.992Z,101027.44
2022-11-05T12:05:37.098Z,101024.94
2022-11-05T12:08:17.655Z,101019.03
2022-11-05T12:11:04.233Z,101012.97
2022-11-05T12:14:11.020Z,101005.16
2022-11-05T12:17:23.113Z,101005.25
2022-11-05T12:20:23.387Z,101001.91
2022-11-05T12:23:15.003Z,100995.84
2022-11-05T12:25:49.703Z,100992.38
2022-11-05T12:28:36.086Z,100986.25
2022-11-05T12:31:13.448Z,100986.25
2022-11-05T12:33:51.138Z,100975.81
2022-11-05T12:36:36.195Z,100968.88
2022-11-05T12:39:26.782Z,100961.06
2022-11-05T12:42:01.419Z,100959.56
2022-11-05T12:44:45.470Z,100958.44
2022-11-05T12:47:25.320Z,100954.16
2022-11-05T12:50:04.267Z,100949.88
2022-11-05T12:53:00.352Z,100941.31
2022-11-05T12:55:32.745Z,100945.50
2022-11-05T12:58:09.628Z,100939.44
2022-11-05T13:00:42.317Z,100947.28
2022-11-05T13:03:25.847Z,100932.53
2022-11-05T13:06:00.188Z,100931.72
2022-11-05T13:08:38.089Z,100928.25
2022-11-05T13:11:15.647Z,100926.59
2022-11-05T13:13:48.955Z,100925.66
2022-11-05T13:16:24.330Z,100923.78
2022-11-05T13:18:54.983Z,100923.03
2022-11-05T13:21:26.401Z,100916.88
2022-11-05T13:24:05.181Z,100924.69
2022-11-05T13:26:41.136Z,100918.56
2022-11-05T13:29:14.345Z,100921.28
2022-11-05T13:31:46.614Z,100911.47
2022-11-05T13:34:14.831Z,100911.47
2022-11-05T13:37:08.142Z,100913.16
2022-11-05T13:39:42.881Z,100913.25
2022-11-05T13:42:41.049Z,100907.94
2022-11-05T13:45:33.324Z,100899.16
2022-11-05T13:48:18.904Z,100903.53
2022-11-05T13:51:10.064Z,100897.59
2022-11-05T13:54:04.188Z,100899.25
2022-11-05T13:56:55.141Z,100894.03
2022-11-05T13:59:53.050Z,100894.03
2022-11-05T14:02:24.659Z,100886.50
2022-11-05T14:05:00.707Z,100894.13
2022-11-05T14:07:31.581Z,100885.38
2022-11-05T14:10:02.771Z,100886.22
2022-11-05T14:12:35.677Z,100880.91
2022-11-05T14:15:08.653Z,100878.28
2022-11-05T14:17:56.028Z,100874.72
2022-11-05T14:20:40.292Z,100875.69
2022-11-05T14:23:47.728Z,100872.13
2022-11-05T14:26:18.942Z,100871.31
2022-11-05T14:28:53.032Z,100869.50
2022-11-05T14:34:47.117Z,100866.09
2022-11-05T14:37:33.351Z,100860.97
2022-11-05T14:40:36.299Z,100859.06
2022-11-05T14:43:08.327Z,100869.50
2022-11-05T14:45:40.429Z,100859.06
2022-11-05T14:48:27.040Z,100854.69
2022-11-05T14:50:56.081Z,100847.81
2022-11-05T14:53:33.275Z,100856.38
2022-11-05T14:56:04.548Z,100853.75
2022-11-05T14:58:35.485Z,100841.56
2022-11-05T15:01:06.774Z,100853.66
2022-11-05T15:04:00.759Z,100853.56
2022-11-05T15:06:32.260Z,100844.16
2022-11-05T15:09:27.882Z,100847.63
2022-11-05T15:12:14.619Z,100844.16
2022-11-05T15:14:54.329Z,100834.56
2022-11-05T15:17:30.045Z,100838.84
2022-11-05T15:20:10.241Z,100830.06
2022-11-05T15:22:42.556Z,100823.19
2022-11-05T15:25:19.041Z,100820.47
2022-11-05T15:27:58.539Z,100814.31
2022-11-05T15:30:26.823Z,100815.25
2022-11-05T15:32:56.110Z,100816.91
2022-11-05T15:35:27.991Z,100811.69
2022-11-05T15:38:02.205Z,100816.00
2022-11-05T15:40:32.515Z,100812.56
2022-11-05T15:43:17.558Z,100815.06
2022-11-05T15:45:59.363Z,100805.56
2022-11-05T15:48:28.652Z,100804.81
2022-11-05T15:50:57.047Z,100799.41
2022-11-05T15:53:56.210Z,100802.84
2022-11-05T15:56:26.152Z,100801.06
2022-11-05T15:58:55.881Z,100787.28
2022-11-05T16:01:30.074Z,100803.56
2022-11-05T16:04:05.770Z,100793.22
2022-11-05T16:06:40.093Z,100786.25
2022-11-05T16:09:08.958Z,100790.53
2022-11-05T16:11:36.829Z,100791.38
2022-11-05T16:14:16.445Z,100792.22
2022-11-05T16:16:45.043Z,100791.47
2022-11-05T16:19:45.669Z,100797.44
2022-11-05T16:22:13.623Z,100795.75
2022-11-05T16:24:44.268Z,100786.06
2022-11-05T16:27:19.467Z,100786.91
2022-11-05T16:29:52.976Z,100792.84
2022-11-05T16:32:29.727Z,100785.09
2022-11-05T16:35:01.642Z,100785.75
2022-11-05T16:37:36.848Z,100785.75
2022-11-05T16:40:14.243Z,100783.16
2022-11-05T16:42:42.700Z,100784.00
2022-11-05T16:45:14.810Z,100779.69
2022-11-05T16:47:43.782Z,100777.94
2022-11-05T16:50:18.423Z,100784.81
2022-11-05T16:52:47.251Z,100783.06
2022-11-05T16:55:16.416Z,100784.00
2022-11-05T16:57:46.234Z,100788.16
2022-11-05T17:00:17.535Z,100776.88
2022-11-05T17:02:47.120Z,100783.06
2022-11-05T17:05:24.145Z,100781.25
2022-11-05T17:07:53.762Z,100777.72
2022-11-05T17:10:22.906Z,100769.91
2022-11-05T17:12:51.396Z,100777.53
2022-11-05T17:15:21.919Z,100773.97
2022-11-05T17:17:50.292Z,100777.44
2022-11-05T17:20:32.565Z,100777.63
2022-11-05T17:23:05.574Z,100787.22
2022-11-05T17:25:34.090Z,100785.56
2022-11-05T17:28:02.765Z,100789.00
2022-11-05T17:30:30.912Z,100788.16
2022-11-05T17:32:59.242Z,100785.47
2022-11-05T17:35:28.638Z,100781.91
2022-11-05T17:37:56.566Z,100783.66
2022-11-05T17:40:24.892Z,100787.22
2022-11-05T17:42:54.624Z,100780.72
2022-11-05T17:45:22.494Z,100782.69
2022-11-05T17:47:50.373Z,100787.91
2022-11-05T17:50:21.654Z,100786.34
2022-11-05T17:52:51.247Z,100788.13
2022-11-05T17:55:19.555Z,100787.19
2022-11-05T17:57:48.930Z,100792.31
2022-11-05T18:00:18.855Z,100788.00
2022-11-05T18:02:51.233Z,100788.13
2022-11-05T18:05:20.453Z,100781.97
2022-11-05T18:07:50.439Z,100796.69
2022-11-05T18:10:18.649Z,100787.09
2022-11-05T18:12:46.540Z,100786.16
2022-11-05T18:15:16.309Z,100786.91
2022-11-05T18:17:45.616Z,100782.59
2022-11-05T18:20:19.458Z,100788.13
2022-11-05T18:22:47.743Z,100788.97
2022-11-05T18:25:17.877Z,100790.63
2022-11-05T18:27:46.109Z,100781.88
2022-11-05T18:30:15.930Z,100775.06
2022-11-05T18:32:44.310Z,100779.56
2022-11-05T18:35:13.309Z,100778.81
2022-11-05T18:37:41.876Z,100776.31
2022-11-05T18:40:10.641Z,100780.88
2022-11-05T18:42:39.927Z,100774.94
2022-11-05T18:45:09.063Z,100777.84
2022-11-05T18:47:37.454Z,100768.78
2022-11-05T18:50:06.600Z,100775.72
2022-11-05T18:52:34.565Z,100773.19
2022-11-05T18:55:02.826Z,100776.53
2022-11-05T18:57:30.902Z,100778.31
2022-11-05T19:00:00.552Z,100775.91
2022-11-05T19:02:28.574Z,100783.09
2022-11-05T19:07:47.300Z,100779.28
2022-11-05T19:10:15.586Z,100779.28
2022-11-05T19:12:43.572Z,100783.56
2022-11-05T19:15:13.134Z,100775.63
2022-11-05T19:17:41.004Z,100784.31
2022-11-05T19:20:10.211Z,100782.53
2022-11-05T19:22:38.210Z,100785.34
2022-11-05T19:25:08.010Z,100789.63
2022-11-05T19:27:37.580Z,100782.75
2022-11-05T19:30:06.471Z,100791.47
2022-11-05T19:32:35.703Z,100786.47
2022-11-05T19:35:04.130Z,100785.09
2022-11-05T19:37:32.019Z,100785.75
2022-11-05T19:39:59.900Z,100788.97
2022-11-05T19:42:28.014Z,100784.59
2022-11-05T19:44:55.884Z,100784.50
2022-11-05T19:47:24.293Z,100790.56
2022-11-05T19:49:53.605Z,100783.56
2022-11-05T19:52:21.513Z,100792.13
2022-11-05T19:54:49.454Z,100794.47
2022-11-05T19:57:17.449Z,100790.72
2022-11-05T19:59:45.325Z,100784.56
2022-11-05T20:02:16.273Z,100791.47
2022-11-05T20:04:44.902Z,100792.28
2022-11-05T20:07:14.206Z,100782.78
2022-11-05T20:09:42.167Z,100789.56
2022-11-05T20:12:10.544Z,100789.38
2022-11-05T20:14:38.507Z,100794.50
2022-11-05T20:17:06.438Z,100797.03
2022-11-05T20:19:35.442Z,100791.78
2022-11-05T20:22:03.406Z,100789.19
2022-11-05T20:24:32.685Z,100797.88
2022-11-05T20:27:00.590Z,100797.13
2022-11-05T20:29:34.996Z,100799.19
2022-11-05T20:32:04.441Z,100796.13
2022-11-05T20:34:34.056Z,100799.78
2022-11-05T20:37:02.081Z,100793.91
2022-11-05T20:39:29.975Z,100802.66
2022-11-05T20:42:00.602Z,100797.09
2022-11-05T20:44:29.008Z,100799.59
2022-11-05T20:46:56.963Z,100808.38
2022-11-05T20:49:25.779Z,100807.31
2022-11-05T20:51:54.137Z,100819.47
2022-11-05T20:54:22.122Z,100806.31
2022-11-05T20:56:50.005Z,100814.06
2022-11-05T20:59:19.882Z,100815.72
2022-11-05T21:01:47.905Z,100812.16
2022-11-05T21:04:15.934Z,100815.44
2022-11-05T21:06:43.950Z,100806.56
2022-11-05T21:09:12.729Z,100797.78
2022-11-05T21:11:57.903Z,100794.28
2022-11-05T21:14:27.178Z,100789.88
2022-11-05T21:16:55.053Z,100795.09
2022-11-05T21:19:26.254Z,100795.84
2022-11-05T21:21:54.173Z,100792.19
2022-11-05T21:24:22.067Z,100793.13
2022-11-05T21:26:51.004Z,100805.31
2022-11-05T21:29:19.578Z,100797.41
2022-11-05T21:31:49.244Z,100810.53
2022-11-05T21:34:17.996Z,100794.88
2022-11-05T21:36:47.330Z,100801.91
2022-11-05T21:39:15.281Z,100800.09
2022-11-05T21:41:43.657Z,100801.25
2022-11-05T21:44:11.824Z,100802.91
2022-11-05T21:46:39.798Z,100808.88
2022-11-05T21:49:09.513Z,100811.41
2022-11-05T21:51:55.863Z,100812.16
2022-11-05T21:54:41.318Z,100805.97
2022-11-05T21:57:32.873Z,100810.34
2022-11-05T22:00:01.849Z,100807.75
2022-11-05T22:02:30.687Z,100807.66
2022-11-05T22:05:00.265Z,100808.59
2022-11-05T22:07:30.712Z,100814.56
2022-11-05T22:09:58.656Z,100813.81
2022-11-05T22:12:26.560Z,100813.72
2022-11-05T22:14:54.615Z,100812.88
2022-11-05T22:17:22.924Z,100807.75
2022-11-05T22:19:51.043Z,100803.66
2022-11-05T22:22:20.333Z,100812.34
2022-11-05T22:24:48.281Z,100814.75
2022-11-05T22:27:18.784Z,100803.66
2022-11-05T22:29:47.429Z,100812.25
2022-11-05T22:32:18.126Z,100812.44
2022-11-05T22:34:46.173Z,100806.56
2022-11-05T22:37:14.467Z,100808.50
2022-11-05T22:39:43.798Z,100805.19
2022-11-05T22:42:11.797Z,100810.22
2022-11-05T22:44:39.733Z,100811.03
2022-11-05T22:47:08.218Z,100803.19
2022-11-05T22:49:39.142Z,100811.34
2022-11-05T22:52:07.183Z,100811.34
2022-11-05T22:54:38.997Z,100806.94
2022-11-05T22:57:11.633Z,100800.69
2022-11-05T22:59:39.568Z,100803.28
2022-11-05T23:02:09.995Z,100807.59
2022-11-05T23:04:39.172Z,100817.00
2022-11-05T23:07:39.099Z,100806.56
2022-11-05T23:10:27.898Z,100808.22
2022-11-05T23:12:57.415Z,100812.44
2022-11-05T23:15:42.078Z,100823.41
2022-11-05T23:18:27.764Z,100813.81
2022-11-05T23:21:13.229Z,100813.91
2022-11-05T23:24:01.854Z,100821.94
2022-11-05T23:26:46.878Z,100812.72
2022-11-05T23:29:16.112Z,100809.25
2022-11-05T23:32:01.170Z,100811.22
2022-11-05T23:34:29.808Z,100816.00
2022-11-05T23:37:15.443Z,100824.69
2022-11-05T23:39:43.385Z,100815.25
2022-11-05T23:42:29.380Z,100818.41
2022-11-05T23:45:15.984Z,100821.78
2022-11-05T23:48:01.502Z,100824.06
2022-11-05T23:50:33.226Z,100819.59
2022-11-05T23:53:05.207Z,100813.53
2022-11-05T23:55:33.119Z,100819.59
2022-11-05T23:58:01.565Z,100812.63
